sensor_id;sensor_type;location;lat;lon;timestamp;P1;durP1;ratioP1;P2;durP2;ratioP2
2750;SDS011;1383;48.362;10.908;2022-07-29T00:02:26;4.17;;;3.77;;
2750;SDS011;1383;48.362;10.908;2022-07-29T00:04:54;3.33;;;3.00;;
2750;SDS011;1383;48.362;10.908;2022-07-29T00:07:20;3.20;;;3.00;;
2750;SDS011;1383;48.362;10.908;2022-07-29T00:09:47;3.00;;;2.80;;
2750;SDS011;1383;48.362;10.908;2022-07-29T00:12:17;3.77;;;3.37;;
2750;SDS011;1383;48.362;10.908;2022-07-29T00:14:51;5.90;;;4.10;;
2750;SDS011;1383;48.362;10.908;2022-07-29T00:17:22;3.40;;;3.20;;
2750;SDS011;1383;48.362;10.908;2022-07-29T00:19:52;5.63;;;3.60;;
2750;SDS011;1383;48.362;10.908;2022-07-29T00:22:19;3.40;;;3.13;;
2750;SDS011;1383;48.362;10.908;2022-07-29T00:24:49;3.33;;;2.90;;
2750;SDS011;1383;48.362;10.908;2022-07-29T00:27:16;4.20;;;3.90;;
2750;SDS011;1383;48.362;10.908;2022-07-29T00:29:43;3.87;;;3.47;;
2750;SDS011;1383;48.362;10.908;2022-07-29T00:32:10;4.33;;;3.93;;
2750;SDS011;1383;48.362;10.908;2022-07-29T00:34:37;4.07;;;3.60;;
2750;SDS011;1383;48.362;10.908;2022-07-29T00:37:23;4.30;;;3.90;;
2750;SDS011;1383;48.362;10.908;2022-07-29T00:39:50;4.50;;;4.10;;
2750;SDS011;1383;48.362;10.908;2022-07-29T00:42:16;5.23;;;4.10;;
2750;SDS011;1383;48.362;10.908;2022-07-29T00:44:43;4.27;;;3.87;;
2750;SDS011;1383;48.362;10.908;2022-07-29T00:47:10;4.90;;;4.30;;
2750;SDS011;1383;48.362;10.908;2022-07-29T00:49:38;5.40;;;3.50;;
2750;SDS011;1383;48.362;10.908;2022-07-29T00:52:07;5.53;;;4.40;;
2750;SDS011;1383;48.362;10.908;2022-07-29T00:54:35;3.70;;;3.40;;
2750;SDS011;1383;48.362;10.908;2022-07-29T00:57:10;4.10;;;3.67;;
2750;SDS011;1383;48.362;10.908;2022-07-29T00:59:37;6.83;;;3.80;;
2750;SDS011;1383;48.362;10.908;2022-07-29T01:02:03;5.37;;;3.97;;
2750;SDS011;1383;48.362;10.908;2022-07-29T01:04:31;4.90;;;4.40;;
2750;SDS011;1383;48.362;10.908;2022-07-29T01:06:58;6.53;;;3.90;;
2750;SDS011;1383;48.362;10.908;2022-07-29T01:09:33;5.00;;;4.40;;
2750;SDS011;1383;48.362;10.908;2022-07-29T01:12:12;4.50;;;4.10;;
2750;SDS011;1383;48.362;10.908;2022-07-29T01:14:42;5.30;;;4.30;;
2750;SDS011;1383;48.362;10.908;2022-07-29T01:17:10;6.17;;;4.90;;
2750;SDS011;1383;48.362;10.908;2022-07-29T01:19:48;5.90;;;5.30;;
2750;SDS011;1383;48.362;10.908;2022-07-29T01:25:53;6.13;;;5.10;;
2750;SDS011;1383;48.362;10.908;2022-07-29T01:31:54;5.60;;;5.10;;
2750;SDS011;1383;48.362;10.908;2022-07-29T01:34:38;6.37;;;5.77;;
2750;SDS011;1383;48.362;10.908;2022-07-29T01:37:15;8.40;;;6.23;;
2750;SDS011;1383;48.362;10.908;2022-07-29T01:39:47;6.00;;;5.50;;
2750;SDS011;1383;48.362;10.908;2022-07-29T01:45:13;5.77;;;4.80;;
2750;SDS011;1383;48.362;10.908;2022-07-29T01:47:44;6.33;;;5.70;;
2750;SDS011;1383;48.362;10.908;2022-07-29T01:50:17;5.80;;;5.17;;
2750;SDS011;1383;48.362;10.908;2022-07-29T01:52:52;4.90;;;4.33;;
2750;SDS011;1383;48.362;10.908;2022-07-29T01:55:27;5.17;;;4.70;;
2750;SDS011;1383;48.362;10.908;2022-07-29T01:57:57;6.97;;;5.17;;
2750;SDS011;1383;48.362;10.908;2022-07-29T02:00:26;5.80;;;5.23;;
2750;SDS011;1383;48.362;10.908;2022-07-29T02:02:55;7.23;;;5.70;;
2750;SDS011;1383;48.362;10.908;2022-07-29T02:05:24;7.17;;;5.80;;
2750;SDS011;1383;48.362;10.908;2022-07-29T02:07:53;11.87;;;10.07;;
2750;SDS011;1383;48.362;10.908;2022-07-29T02:10:24;15.63;;;14.10;;
2750;SDS011;1383;48.362;10.908;2022-07-29T02:12:54;7.60;;;6.30;;
2750;SDS011;1383;48.362;10.908;2022-07-29T02:15:24;6.70;;;6.10;;
2750;SDS011;1383;48.362;10.908;2022-07-29T02:17:56;6.63;;;5.60;;
2750;SDS011;1383;48.362;10.908;2022-07-29T02:20:27;5.83;;;5.10;;
2750;SDS011;1383;48.362;10.908;2022-07-29T02:22:55;6.80;;;6.10;;
2750;SDS011;1383;48.362;10.908;2022-07-29T02:25:23;10.40;;;6.83;;
2750;SDS011;1383;48.362;10.908;2022-07-29T02:28:02;7.37;;;6.20;;
2750;SDS011;1383;48.362;10.908;2022-07-29T02:30:31;6.53;;;5.90;;
2750;SDS011;1383;48.362;10.908;2022-07-29T02:32:59;7.87;;;6.43;;
2750;SDS011;1383;48.362;10.908;2022-07-29T02:35:26;7.03;;;6.20;;
2750;SDS011;1383;48.362;10.908;2022-07-29T02:38:00;6.50;;;5.80;;
2750;SDS011;1383;48.362;10.908;2022-07-29T02:40:46;6.07;;;5.20;;
2750;SDS011;1383;48.362;10.908;2022-07-29T02:43:14;7.50;;;6.17;;
2750;SDS011;1383;48.362;10.908;2022-07-29T02:45:41;6.17;;;5.57;;
2750;SDS011;1383;48.362;10.908;2022-07-29T02:48:13;4.77;;;4.30;;
2750;SDS011;1383;48.362;10.908;2022-07-29T02:50:48;6.20;;;4.93;;
2750;SDS011;1383;48.362;10.908;2022-07-29T02:53:18;5.00;;;4.60;;
2750;SDS011;1383;48.362;10.908;2022-07-29T02:55:51;5.03;;;4.27;;
2750;SDS011;1383;48.362;10.908;2022-07-29T03:00:58;6.50;;;4.50;;
2750;SDS011;1383;48.362;10.908;2022-07-29T03:03:28;5.07;;;4.57;;
2750;SDS011;1383;48.362;10.908;2022-07-29T03:05:59;5.97;;;4.00;;
2750;SDS011;1383;48.362;10.908;2022-07-29T03:08:27;4.93;;;4.00;;
2750;SDS011;1383;48.362;10.908;2022-07-29T03:10:54;3.77;;;3.47;;
2750;SDS011;1383;48.362;10.908;2022-07-29T03:13:22;4.33;;;4.03;;
2750;SDS011;1383;48.362;10.908;2022-07-29T03:15:49;7.73;;;4.60;;
2750;SDS011;1383;48.362;10.908;2022-07-29T03:18:17;4.53;;;4.13;;
2750;SDS011;1383;48.362;10.908;2022-07-29T03:20:44;4.47;;;4.03;;
2750;SDS011;1383;48.362;10.908;2022-07-29T03:23:11;4.93;;;4.37;;
2750;SDS011;1383;48.362;10.908;2022-07-29T03:25:44;5.93;;;4.40;;
2750;SDS011;1383;48.362;10.908;2022-07-29T03:28:11;5.20;;;4.70;;
2750;SDS011;1383;48.362;10.908;2022-07-29T03:30:38;4.70;;;4.23;;
2750;SDS011;1383;48.362;10.908;2022-07-29T03:33:09;5.00;;;4.60;;
2750;SDS011;1383;48.362;10.908;2022-07-29T03:35:38;5.43;;;4.60;;
2750;SDS011;1383;48.362;10.908;2022-07-29T03:38:05;10.60;;;5.33;;
2750;SDS011;1383;48.362;10.908;2022-07-29T03:43:03;5.43;;;4.63;;
2750;SDS011;1383;48.362;10.908;2022-07-29T03:45:33;5.70;;;4.47;;
2750;SDS011;1383;48.362;10.908;2022-07-29T03:48:02;4.80;;;3.63;;
2750;SDS011;1383;48.362;10.908;2022-07-29T03:50:34;4.50;;;4.10;;
2750;SDS011;1383;48.362;10.908;2022-07-29T03:53:02;4.67;;;4.30;;
2750;SDS011;1383;48.362;10.908;2022-07-29T03:55:31;5.00;;;4.13;;
2750;SDS011;1383;48.362;10.908;2022-07-29T03:58:02;6.70;;;5.13;;
2750;SDS011;1383;48.362;10.908;2022-07-29T04:00:29;6.40;;;4.53;;
2750;SDS011;1383;48.362;10.908;2022-07-29T04:02:57;4.43;;;3.60;;
2750;SDS011;1383;48.362;10.908;2022-07-29T04:05:24;5.10;;;4.20;;
2750;SDS011;1383;48.362;10.908;2022-07-29T04:07:50;8.30;;;4.60;;
2750;SDS011;1383;48.362;10.908;2022-07-29T04:10:17;4.10;;;3.80;;
2750;SDS011;1383;48.362;10.908;2022-07-29T04:12:56;14.47;;;6.97;;
2750;SDS011;1383;48.362;10.908;2022-07-29T04:15:23;5.20;;;4.70;;
2750;SDS011;1383;48.362;10.908;2022-07-29T04:17:50;4.53;;;3.90;;
2750;SDS011;1383;48.362;10.908;2022-07-29T04:20:16;5.30;;;3.80;;
2750;SDS011;1383;48.362;10.908;2022-07-29T04:22:44;4.60;;;4.20;;
2750;SDS011;1383;48.362;10.908;2022-07-29T04:25:11;3.90;;;3.50;;
2750;SDS011;1383;48.362;10.908;2022-07-29T04:27:38;4.37;;;3.97;;
2750;SDS011;1383;48.362;10.908;2022-07-29T04:30:24;4.40;;;3.70;;
2750;SDS011;1383;48.362;10.908;2022-07-29T04:32:51;4.33;;;3.93;;
2750;SDS011;1383;48.362;10.908;2022-07-29T04:35:19;5.80;;;4.20;;
2750;SDS011;1383;48.362;10.908;2022-07-29T04:37:46;3.50;;;3.13;;
2750;SDS011;1383;48.362;10.908;2022-07-29T04:40:13;5.47;;;3.63;;
2750;SDS011;1383;48.362;10.908;2022-07-29T04:42:40;6.73;;;3.30;;
2750;SDS011;1383;48.362;10.908;2022-07-29T04:45:12;3.40;;;3.10;;
2750;SDS011;1383;48.362;10.908;2022-07-29T04:47:39;6.13;;;3.10;;
2750;SDS011;1383;48.362;10.908;2022-07-29T04:50:07;4.80;;;4.00;;
2750;SDS011;1383;48.362;10.908;2022-07-29T04:52:34;5.77;;;3.43;;
2750;SDS011;1383;48.362;10.908;2022-07-29T04:55:02;3.40;;;3.10;;
2750;SDS011;1383;48.362;10.908;2022-07-29T04:57:30;4.30;;;3.90;;
2750;SDS011;1383;48.362;10.908;2022-07-29T04:59:57;3.37;;;3.07;;
2750;SDS011;1383;48.362;10.908;2022-07-29T05:02:23;3.63;;;3.30;;
2750;SDS011;1383;48.362;10.908;2022-07-29T05:04:50;5.13;;;3.37;;
2750;SDS011;1383;48.362;10.908;2022-07-29T05:07:17;3.50;;;3.17;;
2750;SDS011;1383;48.362;10.908;2022-07-29T05:09:44;3.83;;;3.40;;
2750;SDS011;1383;48.362;10.908;2022-07-29T05:12:10;3.90;;;3.47;;
2750;SDS011;1383;48.362;10.908;2022-07-29T05:14:38;5.37;;;4.90;;
2750;SDS011;1383;48.362;10.908;2022-07-29T05:17:04;3.40;;;3.20;;
2750;SDS011;1383;48.362;10.908;2022-07-29T05:19:31;3.03;;;2.67;;
2750;SDS011;1383;48.362;10.908;2022-07-29T05:22:04;3.90;;;3.30;;
2750;SDS011;1383;48.362;10.908;2022-07-29T05:24:31;3.77;;;3.43;;
2750;SDS011;1383;48.362;10.908;2022-07-29T05:26:58;3.27;;;2.97;;
2750;SDS011;1383;48.362;10.908;2022-07-29T05:29:25;6.43;;;3.20;;
2750;SDS011;1383;48.362;10.908;2022-07-29T05:32:10;3.50;;;3.03;;
2750;SDS011;1383;48.362;10.908;2022-07-29T05:34:40;4.73;;;3.20;;
2750;SDS011;1383;48.362;10.908;2022-07-29T05:37:17;4.07;;;3.77;;
2750;SDS011;1383;48.362;10.908;2022-07-29T05:39:46;4.60;;;4.17;;
2750;SDS011;1383;48.362;10.908;2022-07-29T05:42:23;7.13;;;3.97;;
2750;SDS011;1383;48.362;10.908;2022-07-29T05:44:50;4.53;;;4.13;;
2750;SDS011;1383;48.362;10.908;2022-07-29T05:47:17;4.47;;;4.07;;
2750;SDS011;1383;48.362;10.908;2022-07-29T05:49:44;4.67;;;4.00;;
2750;SDS011;1383;48.362;10.908;2022-07-29T05:52:12;4.50;;;4.10;;
2750;SDS011;1383;48.362;10.908;2022-07-29T05:54:42;6.87;;;3.80;;
2750;SDS011;1383;48.362;10.908;2022-07-29T05:57:19;4.33;;;3.60;;
2750;SDS011;1383;48.362;10.908;2022-07-29T05:59:47;6.53;;;4.00;;
2750;SDS011;1383;48.362;10.908;2022-07-29T06:02:14;6.80;;;4.50;;
2750;SDS011;1383;48.362;10.908;2022-07-29T06:04:42;5.50;;;5.10;;
2750;SDS011;1383;48.362;10.908;2022-07-29T06:07:09;5.77;;;4.83;;
2750;SDS011;1383;48.362;10.908;2022-07-29T06:09:37;6.77;;;6.10;;
2750;SDS011;1383;48.362;10.908;2022-07-29T06:12:04;5.20;;;4.70;;
2750;SDS011;1383;48.362;10.908;2022-07-29T06:14:31;5.33;;;4.40;;
2750;SDS011;1383;48.362;10.908;2022-07-29T06:16:58;4.53;;;3.60;;
2750;SDS011;1383;48.362;10.908;2022-07-29T06:19:25;6.33;;;5.07;;
2750;SDS011;1383;48.362;10.908;2022-07-29T06:21:52;5.83;;;4.27;;
2750;SDS011;1383;48.362;10.908;2022-07-29T06:24:19;6.13;;;5.20;;
2750;SDS011;1383;48.362;10.908;2022-07-29T06:26:46;7.30;;;4.20;;
2750;SDS011;1383;48.362;10.908;2022-07-29T06:29:13;7.80;;;4.47;;
2750;SDS011;1383;48.362;10.908;2022-07-29T06:31:39;5.20;;;3.97;;
2750;SDS011;1383;48.362;10.908;2022-07-29T06:34:06;6.37;;;4.47;;
2750;SDS011;1383;48.362;10.908;2022-07-29T06:36:34;4.10;;;3.70;;
2750;SDS011;1383;48.362;10.908;2022-07-29T06:39:05;4.67;;;4.23;;
2750;SDS011;1383;48.362;10.908;2022-07-29T06:41:32;6.27;;;4.50;;
2750;SDS011;1383;48.362;10.908;2022-07-29T06:44:00;4.33;;;3.93;;
2750;SDS011;1383;48.362;10.908;2022-07-29T06:46:27;4.93;;;3.60;;
2750;SDS011;1383;48.362;10.908;2022-07-29T06:48:55;3.43;;;3.13;;
2750;SDS011;1383;48.362;10.908;2022-07-29T06:51:22;4.00;;;3.70;;
2750;SDS011;1383;48.362;10.908;2022-07-29T06:53:52;6.50;;;3.77;;
2750;SDS011;1383;48.362;10.908;2022-07-29T06:56:32;6.27;;;4.37;;
2750;SDS011;1383;48.362;10.908;2022-07-29T06:59:05;4.63;;;4.13;;
2750;SDS011;1383;48.362;10.908;2022-07-29T07:01:33;5.23;;;4.37;;
2750;SDS011;1383;48.362;10.908;2022-07-29T07:04:01;5.30;;;4.20;;
2750;SDS011;1383;48.362;10.908;2022-07-29T07:06:28;4.40;;;4.03;;
2750;SDS011;1383;48.362;10.908;2022-07-29T07:08:55;6.83;;;4.10;;
2750;SDS011;1383;48.362;10.908;2022-07-29T07:11:22;4.27;;;3.97;;
2750;SDS011;1383;48.362;10.908;2022-07-29T07:13:49;4.27;;;3.93;;
2750;SDS011;1383;48.362;10.908;2022-07-29T07:16:15;8.10;;;3.70;;
2750;SDS011;1383;48.362;10.908;2022-07-29T07:18:42;5.10;;;4.07;;
2750;SDS011;1383;48.362;10.908;2022-07-29T07:21:11;4.87;;;3.77;;
2750;SDS011;1383;48.362;10.908;2022-07-29T07:23:44;4.37;;;3.40;;
2750;SDS011;1383;48.362;10.908;2022-07-29T07:26:12;4.23;;;3.17;;
2750;SDS011;1383;48.362;10.908;2022-07-29T07:28:38;4.10;;;3.73;;
2750;SDS011;1383;48.362;10.908;2022-07-29T07:31:05;3.50;;;3.30;;
2750;SDS011;1383;48.362;10.908;2022-07-29T07:33:32;6.53;;;2.73;;
2750;SDS011;1383;48.362;10.908;2022-07-29T07:35:59;4.90;;;3.53;;
2750;SDS011;1383;48.362;10.908;2022-07-29T07:38:26;4.30;;;3.43;;
2750;SDS011;1383;48.362;10.908;2022-07-29T07:40:52;3.37;;;2.80;;
2750;SDS011;1383;48.362;10.908;2022-07-29T07:43:19;3.30;;;3.00;;
2750;SDS011;1383;48.362;10.908;2022-07-29T07:45:46;2.60;;;2.40;;
2750;SDS011;1383;48.362;10.908;2022-07-29T07:48:13;2.67;;;2.47;;
2750;SDS011;1383;48.362;10.908;2022-07-29T07:50:40;2.93;;;2.30;;
2750;SDS011;1383;48.362;10.908;2022-07-29T07:53:07;4.70;;;2.70;;
2750;SDS011;1383;48.362;10.908;2022-07-29T07:55:33;2.60;;;2.30;;
2750;SDS011;1383;48.362;10.908;2022-07-29T07:58:26;5.00;;;2.40;;
2750;SDS011;1383;48.362;10.908;2022-07-29T08:00:53;2.90;;;2.40;;
2750;SDS011;1383;48.362;10.908;2022-07-29T08:03:20;2.83;;;2.20;;
2750;SDS011;1383;48.362;10.908;2022-07-29T08:05:47;2.67;;;2.30;;
2750;SDS011;1383;48.362;10.908;2022-07-29T08:08:14;2.70;;;2.50;;
2750;SDS011;1383;48.362;10.908;2022-07-29T08:10:41;3.40;;;2.77;;
2750;SDS011;1383;48.362;10.908;2022-07-29T08:13:22;3.07;;;2.87;;
2750;SDS011;1383;48.362;10.908;2022-07-29T08:15:51;2.13;;;2.03;;
2750;SDS011;1383;48.362;10.908;2022-07-29T08:18:25;2.70;;;2.50;;
2750;SDS011;1383;48.362;10.908;2022-07-29T08:20:52;3.30;;;3.00;;
2750;SDS011;1383;48.362;10.908;2022-07-29T08:23:20;3.37;;;2.60;;
2750;SDS011;1383;48.362;10.908;2022-07-29T08:25:47;2.60;;;2.40;;
2750;SDS011;1383;48.362;10.908;2022-07-29T08:28:15;3.20;;;2.90;;
2750;SDS011;1383;48.362;10.908;2022-07-29T08:30:43;3.07;;;2.77;;
2750;SDS011;1383;48.362;10.908;2022-07-29T08:33:10;2.93;;;2.70;;
2750;SDS011;1383;48.362;10.908;2022-07-29T08:35:38;4.53;;;3.43;;
2750;SDS011;1383;48.362;10.908;2022-07-29T08:38:05;4.80;;;4.40;;
2750;SDS011;1383;48.362;10.908;2022-07-29T08:40:32;3.17;;;2.97;;
2750;SDS011;1383;48.362;10.908;2022-07-29T08:43:03;2.70;;;2.50;;
2750;SDS011;1383;48.362;10.908;2022-07-29T08:45:48;2.77;;;2.57;;
2750;SDS011;1383;48.362;10.908;2022-07-29T08:48:17;3.13;;;2.90;;
2750;SDS011;1383;48.362;10.908;2022-07-29T08:50:47;3.27;;;3.00;;
2750;SDS011;1383;48.362;10.908;2022-07-29T08:53:16;3.80;;;2.67;;
2750;SDS011;1383;48.362;10.908;2022-07-29T08:55:45;3.47;;;2.90;;
2750;SDS011;1383;48.362;10.908;2022-07-29T08:58:13;4.67;;;2.70;;
2750;SDS011;1383;48.362;10.908;2022-07-29T09:00:42;3.50;;;3.20;;
2750;SDS011;1383;48.362;10.908;2022-07-29T09:03:12;3.00;;;2.70;;
2750;SDS011;1383;48.362;10.908;2022-07-29T09:05:42;3.70;;;3.40;;
2750;SDS011;1383;48.362;10.908;2022-07-29T09:08:13;3.93;;;2.70;;
2750;SDS011;1383;48.362;10.908;2022-07-29T09:10:41;3.33;;;3.10;;
2750;SDS011;1383;48.362;10.908;2022-07-29T09:13:08;2.90;;;2.70;;
2750;SDS011;1383;48.362;10.908;2022-07-29T09:15:35;3.77;;;3.40;;
2750;SDS011;1383;48.362;10.908;2022-07-29T09:18:02;2.90;;;2.70;;
2750;SDS011;1383;48.362;10.908;2022-07-29T09:20:29;3.63;;;3.33;;
2750;SDS011;1383;48.362;10.908;2022-07-29T09:23:15;3.30;;;3.00;;
2750;SDS011;1383;48.362;10.908;2022-07-29T09:25:49;3.17;;;2.77;;
2750;SDS011;1383;48.362;10.908;2022-07-29T09:28:17;3.47;;;3.17;;
2750;SDS011;1383;48.362;10.908;2022-07-29T09:30:54;3.30;;;3.03;;
2750;SDS011;1383;48.362;10.908;2022-07-29T09:33:23;3.60;;;3.30;;
2750;SDS011;1383;48.362;10.908;2022-07-29T09:36:00;4.37;;;3.30;;
2750;SDS011;1383;48.362;10.908;2022-07-29T09:38:31;3.80;;;3.50;;
2750;SDS011;1383;48.362;10.908;2022-07-29T09:40:59;3.20;;;3.00;;
2750;SDS011;1383;48.362;10.908;2022-07-29T09:43:31;3.10;;;2.90;;
2750;SDS011;1383;48.362;10.908;2022-07-29T09:46:11;3.40;;;3.10;;
2750;SDS011;1383;48.362;10.908;2022-07-29T09:48:39;3.53;;;3.23;;
2750;SDS011;1383;48.362;10.908;2022-07-29T09:51:16;3.27;;;3.07;;
2750;SDS011;1383;48.362;10.908;2022-07-29T09:53:54;2.90;;;2.53;;
2750;SDS011;1383;48.362;10.908;2022-07-29T09:56:40;3.43;;;3.13;;
2750;SDS011;1383;48.362;10.908;2022-07-29T09:59:08;2.70;;;2.50;;
2750;SDS011;1383;48.362;10.908;2022-07-29T10:01:37;2.90;;;2.80;;
2750;SDS011;1383;48.362;10.908;2022-07-29T10:04:04;3.97;;;3.60;;
2750;SDS011;1383;48.362;10.908;2022-07-29T10:06:30;6.00;;;3.60;;
2750;SDS011;1383;48.362;10.908;2022-07-29T10:09:10;3.40;;;3.20;;
2750;SDS011;1383;48.362;10.908;2022-07-29T10:11:37;3.13;;;2.93;;
2750;SDS011;1383;48.362;10.908;2022-07-29T10:14:14;3.27;;;3.07;;
2750;SDS011;1383;48.362;10.908;2022-07-29T10:16:42;3.50;;;3.20;;
2750;SDS011;1383;48.362;10.908;2022-07-29T10:19:09;3.90;;;3.60;;
2750;SDS011;1383;48.362;10.908;2022-07-29T10:21:36;4.00;;;3.70;;
2750;SDS011;1383;48.362;10.908;2022-07-29T10:24:05;3.73;;;3.47;;
2750;SDS011;1383;48.362;10.908;2022-07-29T10:26:40;3.67;;;3.47;;
2750;SDS011;1383;48.362;10.908;2022-07-29T10:29:07;4.43;;;4.13;;
2750;SDS011;1383;48.362;10.908;2022-07-29T10:31:44;2.70;;;2.50;;
2750;SDS011;1383;48.362;10.908;2022-07-29T10:40:00;3.37;;;3.13;;
2750;SDS011;1383;48.362;10.908;2022-07-29T10:42:55;4.03;;;3.63;;
2750;SDS011;1383;48.362;10.908;2022-07-29T10:45:30;7.53;;;4.00;;
2750;SDS011;1383;48.362;10.908;2022-07-29T10:48:04;4.10;;;3.77;;
2750;SDS011;1383;48.362;10.908;2022-07-29T10:53:51;3.30;;;3.10;;
2750;SDS011;1383;48.362;10.908;2022-07-29T10:56:37;4.00;;;3.70;;
2750;SDS011;1383;48.362;10.908;2022-07-29T11:01:49;3.63;;;3.43;;
2750;SDS011;1383;48.362;10.908;2022-07-29T11:07:12;4.20;;;3.90;;
2750;SDS011;1383;48.362;10.908;2022-07-29T11:09:40;7.50;;;3.87;;
2750;SDS011;1383;48.362;10.908;2022-07-29T11:15:05;4.10;;;3.80;;
2750;SDS011;1383;48.362;10.908;2022-07-29T11:34:21;3.97;;;3.77;;
2750;SDS011;1383;48.362;10.908;2022-07-29T11:39:38;4.13;;;3.73;;
2750;SDS011;1383;48.362;10.908;2022-07-29T11:48:02;4.13;;;3.83;;
2750;SDS011;1383;48.362;10.908;2022-07-29T11:50:51;4.47;;;3.13;;
2750;SDS011;1383;48.362;10.908;2022-07-29T11:53:18;4.10;;;3.67;;
2750;SDS011;1383;48.362;10.908;2022-07-29T11:55:45;3.10;;;2.90;;
2750;SDS011;1383;48.362;10.908;2022-07-29T11:58:23;7.67;;;6.77;;
2750;SDS011;1383;48.362;10.908;2022-07-29T12:00:51;3.83;;;3.30;;
2750;SDS011;1383;48.362;10.908;2022-07-29T12:03:24;3.63;;;3.10;;
2750;SDS011;1383;48.362;10.908;2022-07-29T12:06:01;3.13;;;2.83;;
2750;SDS011;1383;48.362;10.908;2022-07-29T12:08:42;3.50;;;3.30;;
2750;SDS011;1383;48.362;10.908;2022-07-29T12:11:19;4.13;;;3.80;;
2750;SDS011;1383;48.362;10.908;2022-07-29T12:13:48;3.53;;;3.23;;
2750;SDS011;1383;48.362;10.908;2022-07-29T12:16:16;3.80;;;3.30;;
2750;SDS011;1383;48.362;10.908;2022-07-29T12:18:58;3.93;;;3.50;;
2750;SDS011;1383;48.362;10.908;2022-07-29T12:21:27;3.57;;;3.27;;
2750;SDS011;1383;48.362;10.908;2022-07-29T12:23:56;3.53;;;3.23;;
2750;SDS011;1383;48.362;10.908;2022-07-29T12:26:34;5.63;;;3.27;;
2750;SDS011;1383;48.362;10.908;2022-07-29T12:29:02;3.50;;;3.20;;
2750;SDS011;1383;48.362;10.908;2022-07-29T12:31:36;3.37;;;3.07;;
2750;SDS011;1383;48.362;10.908;2022-07-29T12:34:10;5.53;;;3.90;;
2750;SDS011;1383;48.362;10.908;2022-07-29T12:36:38;3.50;;;3.00;;
2750;SDS011;1383;48.362;10.908;2022-07-29T12:39:06;4.50;;;3.47;;
2750;SDS011;1383;48.362;10.908;2022-07-29T12:41:35;4.20;;;3.80;;
2750;SDS011;1383;48.362;10.908;2022-07-29T12:44:02;3.80;;;3.50;;
2750;SDS011;1383;48.362;10.908;2022-07-29T12:46:29;4.20;;;3.87;;
2750;SDS011;1383;48.362;10.908;2022-07-29T12:48:56;3.07;;;2.87;;
2750;SDS011;1383;48.362;10.908;2022-07-29T12:54:02;4.03;;;3.53;;
2750;SDS011;1383;48.362;10.908;2022-07-29T12:56:37;3.67;;;3.37;;
2750;SDS011;1383;48.362;10.908;2022-07-29T12:59:17;4.07;;;3.87;;
2750;SDS011;1383;48.362;10.908;2022-07-29T13:01:48;3.10;;;2.80;;
2750;SDS011;1383;48.362;10.908;2022-07-29T13:06:58;3.30;;;2.50;;
2750;SDS011;1383;48.362;10.908;2022-07-29T13:09:39;2.97;;;2.77;;
2750;SDS011;1383;48.362;10.908;2022-07-29T13:12:08;6.20;;;5.70;;
2750;SDS011;1383;48.362;10.908;2022-07-29T13:14:38;4.07;;;3.67;;
2750;SDS011;1383;48.362;10.908;2022-07-29T13:17:12;2.90;;;2.60;;
2750;SDS011;1383;48.362;10.908;2022-07-29T13:22:10;2.87;;;2.50;;
2750;SDS011;1383;48.362;10.908;2022-07-29T13:24:45;5.53;;;3.00;;
2750;SDS011;1383;48.362;10.908;2022-07-29T13:27:17;2.73;;;2.53;;
2750;SDS011;1383;48.362;10.908;2022-07-29T13:29:45;5.67;;;3.20;;
2750;SDS011;1383;48.362;10.908;2022-07-29T13:32:12;3.93;;;3.70;;
2750;SDS011;1383;48.362;10.908;2022-07-29T13:34:39;3.50;;;3.20;;
2750;SDS011;1383;48.362;10.908;2022-07-29T13:37:06;2.50;;;2.40;;
2750;SDS011;1383;48.362;10.908;2022-07-29T13:39:33;3.27;;;2.80;;
2750;SDS011;1383;48.362;10.908;2022-07-29T13:42:00;3.50;;;3.20;;
2750;SDS011;1383;48.362;10.908;2022-07-29T13:44:27;3.40;;;3.20;;
2750;SDS011;1383;48.362;10.908;2022-07-29T13:46:54;2.93;;;2.73;;
2750;SDS011;1383;48.362;10.908;2022-07-29T13:49:21;3.17;;;2.87;;
2750;SDS011;1383;48.362;10.908;2022-07-29T13:51:49;4.00;;;2.80;;
2750;SDS011;1383;48.362;10.908;2022-07-29T13:54:16;4.47;;;3.50;;
2750;SDS011;1383;48.362;10.908;2022-07-29T13:56:43;3.00;;;2.70;;
2750;SDS011;1383;48.362;10.908;2022-07-29T13:59:11;3.17;;;2.87;;
2750;SDS011;1383;48.362;10.908;2022-07-29T14:01:38;3.17;;;2.90;;
2750;SDS011;1383;48.362;10.908;2022-07-29T14:04:08;3.73;;;2.80;;
2750;SDS011;1383;48.362;10.908;2022-07-29T14:06:37;4.17;;;3.40;;
2750;SDS011;1383;48.362;10.908;2022-07-29T14:09:06;5.10;;;2.90;;
2750;SDS011;1383;48.362;10.908;2022-07-29T14:11:34;4.73;;;3.53;;
2750;SDS011;1383;48.362;10.908;2022-07-29T14:14:02;8.17;;;7.37;;
2750;SDS011;1383;48.362;10.908;2022-07-29T14:16:28;4.60;;;3.00;;
2750;SDS011;1383;48.362;10.908;2022-07-29T14:18:55;3.37;;;2.57;;
2750;SDS011;1383;48.362;10.908;2022-07-29T14:21:22;6.17;;;5.20;;
2750;SDS011;1383;48.362;10.908;2022-07-29T14:23:50;3.53;;;3.23;;
2750;SDS011;1383;48.362;10.908;2022-07-29T14:26:18;4.23;;;3.63;;
2750;SDS011;1383;48.362;10.908;2022-07-29T14:28:49;3.47;;;3.17;;
2750;SDS011;1383;48.362;10.908;2022-07-29T14:31:16;2.60;;;2.40;;
2750;SDS011;1383;48.362;10.908;2022-07-29T14:33:43;3.23;;;2.93;;
2750;SDS011;1383;48.362;10.908;2022-07-29T14:36:14;3.40;;;2.77;;
2750;SDS011;1383;48.362;10.908;2022-07-29T14:38:41;3.73;;;3.43;;
2750;SDS011;1383;48.362;10.908;2022-07-29T14:41:08;4.77;;;3.70;;
2750;SDS011;1383;48.362;10.908;2022-07-29T14:43:35;3.60;;;3.30;;
2750;SDS011;1383;48.362;10.908;2022-07-29T14:46:02;3.50;;;3.20;;
2750;SDS011;1383;48.362;10.908;2022-07-29T14:48:33;3.50;;;3.07;;
2750;SDS011;1383;48.362;10.908;2022-07-29T14:51:01;4.00;;;3.53;;
2750;SDS011;1383;48.362;10.908;2022-07-29T14:53:30;4.03;;;3.03;;
2750;SDS011;1383;48.362;10.908;2022-07-29T14:55:57;3.43;;;3.13;;
2750;SDS011;1383;48.362;10.908;2022-07-29T14:58:44;3.47;;;3.17;;
2750;SDS011;1383;48.362;10.908;2022-07-29T15:01:17;3.83;;;3.07;;
2750;SDS011;1383;48.362;10.908;2022-07-29T15:03:44;5.60;;;3.27;;
2750;SDS011;1383;48.362;10.908;2022-07-29T15:06:11;3.50;;;2.80;;
2750;SDS011;1383;48.362;10.908;2022-07-29T15:08:38;3.17;;;2.87;;
2750;SDS011;1383;48.362;10.908;2022-07-29T15:11:05;4.47;;;3.10;;
2750;SDS011;1383;48.362;10.908;2022-07-29T15:13:32;3.80;;;3.33;;
2750;SDS011;1383;48.362;10.908;2022-07-29T15:16:00;3.83;;;3.53;;
2750;SDS011;1383;48.362;10.908;2022-07-29T15:18:26;3.53;;;3.33;;
2750;SDS011;1383;48.362;10.908;2022-07-29T15:20:53;4.07;;;3.77;;
2750;SDS011;1383;48.362;10.908;2022-07-29T15:23:20;3.93;;;3.37;;
2750;SDS011;1383;48.362;10.908;2022-07-29T15:25:47;3.10;;;2.90;;
2750;SDS011;1383;48.362;10.908;2022-07-29T15:28:13;4.43;;;3.67;;
2750;SDS011;1383;48.362;10.908;2022-07-29T15:30:40;5.50;;;3.27;;
2750;SDS011;1383;48.362;10.908;2022-07-29T15:33:07;3.60;;;3.33;;
2750;SDS011;1383;48.362;10.908;2022-07-29T15:35:37;4.13;;;3.83;;
2750;SDS011;1383;48.362;10.908;2022-07-29T15:38:06;4.23;;;3.67;;
2750;SDS011;1383;48.362;10.908;2022-07-29T15:40:33;3.77;;;3.43;;
2750;SDS011;1383;48.362;10.908;2022-07-29T15:43:03;4.30;;;3.87;;
2750;SDS011;1383;48.362;10.908;2022-07-29T15:45:35;6.47;;;4.07;;
2750;SDS011;1383;48.362;10.908;2022-07-29T15:48:06;4.10;;;3.70;;
2750;SDS011;1383;48.362;10.908;2022-07-29T15:50:34;6.00;;;4.57;;
2750;SDS011;1383;48.362;10.908;2022-07-29T15:53:01;3.50;;;3.20;;
2750;SDS011;1383;48.362;10.908;2022-07-29T15:55:28;5.73;;;5.17;;
2750;SDS011;1383;48.362;10.908;2022-07-29T15:57:55;4.27;;;3.87;;
2750;SDS011;1383;48.362;10.908;2022-07-29T16:00:25;6.27;;;5.13;;
2750;SDS011;1383;48.362;10.908;2022-07-29T16:02:52;4.57;;;4.20;;
2750;SDS011;1383;48.362;10.908;2022-07-29T16:05:19;4.83;;;4.50;;
2750;SDS011;1383;48.362;10.908;2022-07-29T16:07:46;4.97;;;4.30;;
2750;SDS011;1383;48.362;10.908;2022-07-29T16:10:12;6.30;;;4.10;;
2750;SDS011;1383;48.362;10.908;2022-07-29T16:12:39;4.07;;;3.77;;
2750;SDS011;1383;48.362;10.908;2022-07-29T16:15:07;6.83;;;3.87;;
2750;SDS011;1383;48.362;10.908;2022-07-29T16:17:36;4.33;;;3.93;;
2750;SDS011;1383;48.362;10.908;2022-07-29T16:20:04;5.30;;;3.90;;
2750;SDS011;1383;48.362;10.908;2022-07-29T16:22:31;5.17;;;3.80;;